sensor_id;sensor_type;location;lat;lon;timestamp;P1;durP1;ratioP1;P2;durP2;ratioP2
32106;SDS011;18622;51.998;10.440;2023-07-24T03:31:06;1.30;;;1.20;;
32106;SDS011;18622;51.998;10.440;2023-07-24T03:33:34;1.17;;;1.07;;
32106;SDS011;18622;51.998;10.440;2023-07-24T03:36:02;2.30;;;1.20;;
32106;SDS011;18622;51.998;10.440;2023-07-24T03:38:30;1.83;;;1.33;;
32106;SDS011;18622;51.998;10.440;2023-07-24T03:40:58;1.60;;;1.17;;
32106;SDS011;18622;51.998;10.440;2023-07-24T03:43:25;1.77;;;1.20;;
32106;SDS011;18622;51.998;10.440;2023-07-24T03:45:53;1.80;;;1.57;;
32106;SDS011;18622;51.998;10.440;2023-07-24T03:48:21;1.43;;;1.33;;
32106;SDS011;18622;51.998;10.440;2023-07-24T03:50:49;1.50;;;1.37;;
32106;SDS011;18622;51.998;10.440;2023-07-24T03:53:19;1.83;;;1.00;;
32106;SDS011;18622;51.998;10.440;2023-07-24T03:55:47;1.73;;;1.27;;
32106;SDS011;18622;51.998;10.440;2023-07-24T03:58:14;1.53;;;1.20;;
32106;SDS011;18622;51.998;10.440;2023-07-24T04:00:42;1.30;;;1.20;;
32106;SDS011;18622;51.998;10.440;2023-07-24T04:03:10;1.63;;;1.13;;
32106;SDS011;18622;51.998;10.440;2023-07-24T04:05:38;3.83;;;1.30;;
32106;SDS011;18622;51.998;10.440;2023-07-24T04:08:06;2.00;;;1.27;;
32106;SDS011;18622;51.998;10.440;2023-07-24T04:10:33;1.33;;;1.23;;
32106;SDS011;18622;51.998;10.440;2023-07-24T04:13:01;2.23;;;1.27;;
32106;SDS011;18622;51.998;10.440;2023-07-24T04:15:29;1.70;;;1.40;;
32106;SDS011;18622;51.998;10.440;2023-07-24T04:17:57;1.43;;;1.10;;
32106;SDS011;18622;51.998;10.440;2023-07-24T04:20:24;1.70;;;1.50;;
32106;SDS011;18622;51.998;10.440;2023-07-24T04:22:52;1.53;;;1.43;;
32106;SDS011;18622;51.998;10.440;2023-07-24T04:25:20;2.53;;;1.30;;
32106;SDS011;18622;51.998;10.440;2023-07-24T04:27:48;3.23;;;1.70;;
32106;SDS011;18622;51.998;10.440;2023-07-24T04:30:16;2.97;;;1.57;;
32106;SDS011;18622;51.998;10.440;2023-07-24T04:32:43;2.67;;;1.40;;
32106;SDS011;18622;51.998;10.440;2023-07-24T04:35:11;1.50;;;1.40;;
32106;SDS011;18622;51.998;10.440;2023-07-24T04:37:39;1.87;;;1.30;;
32106;SDS011;18622;51.998;10.440;2023-07-24T04:40:07;3.90;;;1.30;;
32106;SDS011;18622;51.998;10.440;2023-07-24T04:42:36;1.37;;;1.27;;
32106;SDS011;18622;51.998;10.440;2023-07-24T04:45:04;1.53;;;1.37;;
32106;SDS011;18622;51.998;10.440;2023-07-24T04:47:32;1.70;;;1.10;;
32106;SDS011;18622;51.998;10.440;2023-07-24T04:50:00;1.90;;;1.37;;
32106;SDS011;18622;51.998;10.440;2023-07-24T04:52:27;1.37;;;1.27;;
32106;SDS011;18622;51.998;10.440;2023-07-24T04:54:55;2.20;;;1.10;;
32106;SDS011;18622;51.998;10.440;2023-07-24T04:57:23;1.30;;;1.20;;
32106;SDS011;18622;51.998;10.440;2023-07-24T04:59:51;3.97;;;1.40;;
32106;SDS011;18622;51.998;10.440;2023-07-24T05:02:18;2.13;;;1.10;;
32106;SDS011;18622;51.998;10.440;2023-07-24T05:04:46;1.50;;;1.40;;
32106;SDS011;18622;51.998;10.440;2023-07-24T05:07:14;1.83;;;1.20;;
32106;SDS011;18622;51.998;10.440;2023-07-24T05:09:42;1.80;;;1.27;;
32106;SDS011;18622;51.998;10.440;2023-07-24T05:12:10;3.67;;;1.40;;
32106;SDS011;18622;51.998;10.440;2023-07-24T05:14:37;1.43;;;1.23;;
32106;SDS011;18622;51.998;10.440;2023-07-24T05:17:05;2.07;;;1.47;;
32106;SDS011;18622;51.998;10.440;2023-07-24T05:19:33;2.43;;;1.40;;
32106;SDS011;18622;51.998;10.440;2023-07-24T05:22:01;2.80;;;1.17;;
32106;SDS011;18622;51.998;10.440;2023-07-24T05:24:29;2.37;;;1.30;;
32106;SDS011;18622;51.998;10.440;2023-07-24T05:26:57;2.30;;;1.40;;
32106;SDS011;18622;51.998;10.440;2023-07-24T05:29:24;4.43;;;1.37;;
32106;SDS011;18622;51.998;10.440;2023-07-24T05:31:52;2.53;;;1.50;;
32106;SDS011;18622;51.998;10.440;2023-07-24T05:34:20;3.93;;;1.53;;
32106;SDS011;18622;51.998;10.440;2023-07-24T05:36:48;1.40;;;1.30;;
32106;SDS011;18622;51.998;10.440;2023-07-24T05:39:15;1.80;;;1.60;;
32106;SDS011;18622;51.998;10.440;2023-07-24T05:41:43;1.90;;;1.60;;
32106;SDS011;18622;51.998;10.440;2023-07-24T05:44:11;3.47;;;1.53;;
32106;SDS011;18622;51.998;10.440;2023-07-24T05:46:39;1.93;;;1.50;;
32106;SDS011;18622;51.998;10.440;2023-07-24T05:49:07;4.43;;;1.67;;
32106;SDS011;18622;51.998;10.440;2023-07-24T05:51:34;2.47;;;1.50;;
32106;SDS011;18622;51.998;10.440;2023-07-24T05:54:02;2.60;;;1.47;;
32106;SDS011;18622;51.998;10.440;2023-07-24T05:56:30;2.57;;;1.50;;
32106;SDS011;18622;51.998;10.440;2023-07-24T05:58:58;2.20;;;1.50;;
32106;SDS011;18622;51.998;10.440;2023-07-24T06:01:26;2.00;;;1.33;;
32106;SDS011;18622;51.998;10.440;2023-07-24T06:03:53;1.50;;;1.30;;
32106;SDS011;18622;51.998;10.440;2023-07-24T06:06:21;2.00;;;1.53;;
32106;SDS011;18622;51.998;10.440;2023-07-24T06:08:49;2.90;;;1.47;;
32106;SDS011;18622;51.998;10.440;2023-07-24T06:11:17;4.50;;;1.50;;
32106;SDS011;18622;51.998;10.440;2023-07-24T06:13:44;2.70;;;1.50;;
32106;SDS011;18622;51.998;10.440;2023-07-24T06:16:12;1.70;;;1.60;;
32106;SDS011;18622;51.998;10.440;2023-07-24T06:18:40;2.33;;;1.67;;
32106;SDS011;18622;51.998;10.440;2023-07-24T06:21:08;2.70;;;1.60;;
32106;SDS011;18622;51.998;10.440;2023-07-24T06:23:36;2.40;;;1.67;;
32106;SDS011;18622;51.998;10.440;2023-07-24T06:26:04;1.83;;;1.50;;
32106;SDS011;18622;51.998;10.440;2023-07-24T06:28:32;3.63;;;1.33;;
32106;SDS011;18622;51.998;10.440;2023-07-24T06:30:59;1.60;;;1.47;;
32106;SDS011;18622;51.998;10.440;2023-07-24T06:33:27;3.73;;;1.67;;
32106;SDS011;18622;51.998;10.440;2023-07-24T06:35:55;3.20;;;1.90;;
32106;SDS011;18622;51.998;10.440;2023-07-24T06:38:23;2.27;;;1.33;;
32106;SDS011;18622;51.998;10.440;2023-07-24T06:40:51;1.67;;;1.50;;
32106;SDS011;18622;51.998;10.440;2023-07-24T06:43:19;2.30;;;1.43;;
32106;SDS011;18622;51.998;10.440;2023-07-24T06:45:46;2.53;;;1.90;;
32106;SDS011;18622;51.998;10.440;2023-07-24T06:48:14;3.37;;;1.80;;
32106;SDS011;18622;51.998;10.440;2023-07-24T06:50:42;1.50;;;1.40;;
32106;SDS011;18622;51.998;10.440;2023-07-24T06:53:10;1.53;;;1.40;;
32106;SDS011;18622;51.998;10.440;2023-07-24T06:55:38;1.87;;;1.47;;
32106;SDS011;18622;51.998;10.440;2023-07-24T06:58:05;2.47;;;1.90;;
32106;SDS011;18622;51.998;10.440;2023-07-24T07:00:33;1.53;;;1.43;;
32106;SDS011;18622;51.998;10.440;2023-07-24T07:03:01;2.17;;;1.60;;
32106;SDS011;18622;51.998;10.440;2023-07-24T07:05:29;4.60;;;1.87;;
32106;SDS011;18622;51.998;10.440;2023-07-24T07:07:58;2.23;;;1.67;;
32106;SDS011;18622;51.998;10.440;2023-07-24T07:10:26;4.40;;;1.80;;
32106;SDS011;18622;51.998;10.440;2023-07-24T07:12:54;2.70;;;1.90;;
32106;SDS011;18622;51.998;10.440;2023-07-24T07:15:22;6.17;;;2.10;;
32106;SDS011;18622;51.998;10.440;2023-07-24T07:17:50;2.53;;;1.80;;
32106;SDS011;18622;51.998;10.440;2023-07-24T07:20:18;2.43;;;2.13;;
32106;SDS011;18622;51.998;10.440;2023-07-24T07:22:46;1.80;;;1.70;;
32106;SDS011;18622;51.998;10.440;2023-07-24T07:25:13;2.87;;;1.93;;
32106;SDS011;18622;51.998;10.440;2023-07-24T07:27:41;3.10;;;2.10;;
32106;SDS011;18622;51.998;10.440;2023-07-24T07:30:09;3.53;;;2.10;;
32106;SDS011;18622;51.998;10.440;2023-07-24T07:32:37;4.40;;;2.17;;
32106;SDS011;18622;51.998;10.440;2023-07-24T07:35:05;3.63;;;1.80;;
32106;SDS011;18622;51.998;10.440;2023-07-24T07:37:33;2.20;;;2.00;;
32106;SDS011;18622;51.998;10.440;2023-07-24T07:40:01;4.50;;;2.10;;
32106;SDS011;18622;51.998;10.440;2023-07-24T07:42:29;2.72;;;2.05;;
32106;SDS011;18622;51.998;10.440;2023-07-24T07:44:57;3.17;;;2.10;;
32106;SDS011;18622;51.998;10.440;2023-07-24T07:47:25;3.90;;;2.20;;
32106;SDS011;18622;51.998;10.440;2023-07-24T07:49:52;3.60;;;2.13;;
32106;SDS011;18622;51.998;10.440;2023-07-24T07:52:20;3.47;;;2.20;;
32106;SDS011;18622;51.998;10.440;2023-07-24T07:54:48;3.10;;;2.57;;
32106;SDS011;18622;51.998;10.440;2023-07-24T07:57:16;5.85;;;2.80;;
32106;SDS011;18622;51.998;10.440;2023-07-24T07:59:44;2.97;;;2.63;;
32106;SDS011;18622;51.998;10.440;2023-07-24T08:02:12;3.63;;;2.50;;
32106;SDS011;18622;51.998;10.440;2023-07-24T08:04:40;2.47;;;2.27;;
32106;SDS011;18622;51.998;10.440;2023-07-24T08:07:07;5.90;;;2.87;;
32106;SDS011;18622;51.998;10.440;2023-07-24T08:09:35;4.87;;;2.87;;
32106;SDS011;18622;51.998;10.440;2023-07-24T08:12:04;8.93;;;3.00;;
32106;SDS011;18622;51.998;10.440;2023-07-24T08:17:09;5.60;;;2.40;;
32106;SDS011;18622;51.998;10.440;2023-07-24T08:19:37;7.07;;;2.90;;
32106;SDS011;18622;51.998;10.440;2023-07-24T08:22:05;2.57;;;2.37;;
32106;SDS011;18622;51.998;10.440;2023-07-24T08:24:33;7.07;;;2.77;;
32106;SDS011;18622;51.998;10.440;2023-07-24T08:27:01;3.95;;;2.30;;
32106;SDS011;18622;51.998;10.440;2023-07-24T08:29:29;6.60;;;3.10;;
32106;SDS011;18622;51.998;10.440;2023-07-24T08:31:57;5.57;;;2.80;;
32106;SDS011;18622;51.998;10.440;2023-07-24T08:34:25;6.03;;;2.93;;
32106;SDS011;18622;51.998;10.440;2023-07-24T08:36:53;5.00;;;3.03;;
32106;SDS011;18622;51.998;10.440;2023-07-24T08:39:21;2.50;;;2.10;;
32106;SDS011;18622;51.998;10.440;2023-07-24T08:41:48;3.77;;;2.97;;
32106;SDS011;18622;51.998;10.440;2023-07-24T08:44:16;2.53;;;2.27;;
32106;SDS011;18622;51.998;10.440;2023-07-24T08:46:45;3.87;;;2.05;;
32106;SDS011;18622;51.998;10.440;2023-07-24T08:49:15;3.45;;;2.42;;
32106;SDS011;18622;51.998;10.440;2023-07-24T08:54:11;5.25;;;2.37;;
32106;SDS011;18622;51.998;10.440;2023-07-24T08:56:39;3.10;;;2.52;;
32106;SDS011;18622;51.998;10.440;2023-07-24T08:59:07;2.75;;;2.22;;
32106;SDS011;18622;51.998;10.440;2023-07-24T09:01:35;2.73;;;2.30;;
32106;SDS011;18622;51.998;10.440;2023-07-24T09:04:03;2.83;;;2.50;;
32106;SDS011;18622;51.998;10.440;2023-07-24T09:06:31;2.77;;;2.27;;
32106;SDS011;18622;51.998;10.440;2023-07-24T09:08:58;8.50;;;2.90;;
32106;SDS011;18622;51.998;10.440;2023-07-24T09:11:26;4.67;;;3.00;;
32106;SDS011;18622;51.998;10.440;2023-07-24T09:13:54;4.27;;;2.90;;
32106;SDS011;18622;51.998;10.440;2023-07-24T09:16:22;6.57;;;3.03;;
32106;SDS011;18622;51.998;10.440;2023-07-24T09:18:52;4.55;;;2.75;;
32106;SDS011;18622;51.998;10.440;2023-07-24T09:21:28;2.80;;;2.27;;
32106;SDS011;18622;51.998;10.440;2023-07-24T09:23:57;6.13;;;2.10;;
32106;SDS011;18622;51.998;10.440;2023-07-24T09:26:26;2.58;;;2.20;;
32106;SDS011;18622;51.998;10.440;2023-07-24T09:28:54;4.77;;;2.27;;
32106;SDS011;18622;51.998;10.440;2023-07-24T09:31:22;2.63;;;1.93;;
32106;SDS011;18622;51.998;10.440;2023-07-24T09:33:53;2.67;;;1.65;;
32106;SDS011;18622;51.998;10.440;2023-07-24T09:36:20;2.10;;;1.50;;
32106;SDS011;18622;51.998;10.440;2023-07-24T09:38:48;2.60;;;1.80;;
32106;SDS011;18622;51.998;10.440;2023-07-24T09:41:26;2.45;;;1.55;;
32106;SDS011;18622;51.998;10.440;2023-07-24T09:43:57;1.50;;;1.35;;
32106;SDS011;18622;51.998;10.440;2023-07-24T09:46:20;1.82;;;1.42;;
32106;SDS011;18622;51.998;10.440;2023-07-24T09:48:49;1.37;;;1.27;;
32106;SDS011;18622;51.998;10.440;2023-07-24T09:51:17;1.43;;;1.33;;
32106;SDS011;18622;51.998;10.440;2023-07-24T09:54:33;1.60;;;1.50;;
32106;SDS011;18622;51.998;10.440;2023-07-24T09:56:25;1.47;;;1.30;;
32106;SDS011;18622;51.998;10.440;2023-07-24T09:58:54;3.17;;;1.57;;
32106;SDS011;18622;51.998;10.440;2023-07-24T10:01:23;1.63;;;1.53;;
32106;SDS011;18622;51.998;10.440;2023-07-24T10:03:51;4.53;;;1.63;;
32106;SDS011;18622;51.998;10.440;2023-07-24T10:06:20;1.80;;;1.42;;
32106;SDS011;18622;51.998;10.440;2023-07-24T10:08:48;1.72;;;1.45;;
32106;SDS011;18622;51.998;10.440;2023-07-24T10:11:17;2.58;;;1.87;;
32106;SDS011;18622;51.998;10.440;2023-07-24T10:13:45;1.72;;;1.60;;
32106;SDS011;18622;51.998;10.440;2023-07-24T10:16:13;2.40;;;1.83;;
32106;SDS011;18622;51.998;10.440;2023-07-24T10:18:43;2.63;;;2.27;;
32106;SDS011;18622;51.998;10.440;2023-07-24T10:21:12;2.43;;;1.87;;
32106;SDS011;18622;51.998;10.440;2023-07-24T10:23:41;2.00;;;1.85;;
32106;SDS011;18622;51.998;10.440;2023-07-24T10:26:10;3.10;;;2.03;;
32106;SDS011;18622;51.998;10.440;2023-07-24T10:28:38;2.03;;;1.90;;
32106;SDS011;18622;51.998;10.440;2023-07-24T10:31:28;1.85;;;1.75;;
32106;SDS011;18622;51.998;10.440;2023-07-24T10:33:46;2.17;;;1.80;;
32106;SDS011;18622;51.998;10.440;2023-07-24T10:36:17;3.57;;;2.17;;
32106;SDS011;18622;51.998;10.440;2023-07-24T10:38:46;2.98;;;1.98;;
32106;SDS011;18622;51.998;10.440;2023-07-24T10:41:15;2.60;;;2.40;;
32106;SDS011;18622;51.998;10.440;2023-07-24T10:43:44;3.20;;;1.93;;
32106;SDS011;18622;51.998;10.440;2023-07-24T10:46:14;2.60;;;2.30;;
32106;SDS011;18622;51.998;10.440;2023-07-24T10:48:44;3.03;;;2.30;;
32106;SDS011;18622;51.998;10.440;2023-07-24T10:51:13;2.27;;;2.07;;
32106;SDS011;18622;51.998;10.440;2023-07-24T10:53:47;4.00;;;2.13;;
32106;SDS011;18622;51.998;10.440;2023-07-24T10:56:12;2.75;;;2.02;;
32106;SDS011;18622;51.998;10.440;2023-07-24T10:58:41;4.43;;;2.00;;
32106;SDS011;18622;51.998;10.440;2023-07-24T11:01:09;3.30;;;2.37;;
32106;SDS011;18622;51.998;10.440;2023-07-24T11:03:37;2.47;;;2.27;;
32106;SDS011;18622;51.998;10.440;2023-07-24T11:06:21;9.97;;;2.13;;
32106;SDS011;18622;51.998;10.440;2023-07-24T11:08:51;2.40;;;2.07;;
32106;SDS011;18622;51.998;10.440;2023-07-24T11:11:27;2.50;;;2.30;;
32106;SDS011;18622;51.998;10.440;2023-07-24T11:13:55;2.37;;;2.10;;
32106;SDS011;18622;51.998;10.440;2023-07-24T11:16:23;1.97;;;1.87;;
32106;SDS011;18622;51.998;10.440;2023-07-24T11:18:50;2.60;;;2.10;;
32106;SDS011;18622;51.998;10.440;2023-07-24T11:21:18;2.60;;;2.40;;
32106;SDS011;18622;51.998;10.440;2023-07-24T11:26:18;3.45;;;2.40;;
32106;SDS011;18622;51.998;10.440;2023-07-24T11:28:49;2.67;;;2.00;;
32106;SDS011;18622;51.998;10.440;2023-07-24T11:31:17;5.08;;;2.30;;
32106;SDS011;18622;51.998;10.440;2023-07-24T11:33:46;2.60;;;2.15;;
32106;SDS011;18622;51.998;10.440;2023-07-24T11:36:18;2.60;;;2.20;;
32106;SDS011;18622;51.998;10.440;2023-07-24T11:38:46;5.67;;;2.30;;
32106;SDS011;18622;51.998;10.440;2023-07-24T11:41:15;3.08;;;2.15;;
32106;SDS011;18622;51.998;10.440;2023-07-24T11:43:47;2.47;;;2.27;;
32106;SDS011;18622;51.998;10.440;2023-07-24T11:46:22;2.20;;;2.00;;
32106;SDS011;18622;51.998;10.440;2023-07-24T11:48:54;2.10;;;2.00;;
32106;SDS011;18622;51.998;10.440;2023-07-24T11:51:27;1.97;;;1.83;;
32106;SDS011;18622;51.998;10.440;2023-07-24T11:54:03;3.00;;;2.02;;
32106;SDS011;18622;51.998;10.440;2023-07-24T11:56:37;1.67;;;1.57;;
32106;SDS011;18622;51.998;10.440;2023-07-24T12:01:41;2.77;;;2.20;;
32106;SDS011;18622;51.998;10.440;2023-07-24T12:04:14;2.27;;;1.85;;
32106;SDS011;18622;51.998;10.440;2023-07-24T12:06:42;2.10;;;1.90;;
32106;SDS011;18622;51.998;10.440;2023-07-24T12:09:10;2.53;;;2.03;;
32106;SDS011;18622;51.998;10.440;2023-07-24T12:11:39;1.87;;;1.77;;
32106;SDS011;18622;51.998;10.440;2023-07-24T12:14:12;4.03;;;1.92;;
32106;SDS011;18622;51.998;10.440;2023-07-24T12:16:41;2.12;;;1.95;;
32106;SDS011;18622;51.998;10.440;2023-07-24T12:19:08;1.90;;;1.80;;
32106;SDS011;18622;51.998;10.440;2023-07-24T12:21:36;4.33;;;2.00;;
32106;SDS011;18622;51.998;10.440;2023-07-24T12:24:04;1.80;;;1.70;;
32106;SDS011;18622;51.998;10.440;2023-07-24T12:26:32;2.70;;;2.00;;
32106;SDS011;18622;51.998;10.440;2023-07-24T12:29:00;2.57;;;2.07;;
32106;SDS011;18622;51.998;10.440;2023-07-24T12:31:28;3.93;;;2.30;;
32106;SDS011;18622;51.998;10.440;2023-07-24T12:33:56;2.50;;;2.30;;
32106;SDS011;18622;51.998;10.440;2023-07-24T12:36:24;1.90;;;1.80;;
32106;SDS011;18622;51.998;10.440;2023-07-24T12:38:51;2.10;;;2.00;;
32106;SDS011;18622;51.998;10.440;2023-07-24T12:41:19;3.23;;;2.10;;
32106;SDS011;18622;51.998;10.440;2023-07-24T12:43:47;3.43;;;2.17;;
32106;SDS011;18622;51.998;10.440;2023-07-24T12:46:15;2.27;;;2.17;;
32106;SDS011;18622;51.998;10.440;2023-07-24T12:48:43;2.40;;;2.10;;
32106;SDS011;18622;51.998;10.440;2023-07-24T12:51:11;2.00;;;1.90;;
32106;SDS011;18622;51.998;10.440;2023-07-24T12:53:39;2.50;;;2.30;;
32106;SDS011;18622;51.998;10.440;2023-07-24T12:56:06;1.93;;;1.83;;
32106;SDS011;18622;51.998;10.440;2023-07-24T12:58:34;2.80;;;2.50;;
32106;SDS011;18622;51.998;10.440;2023-07-24T13:01:02;2.53;;;2.20;;
32106;SDS011;18622;51.998;10.440;2023-07-24T13:03:30;3.43;;;2.27;;
32106;SDS011;18622;51.998;10.440;2023-07-24T13:05:58;2.67;;;2.47;;
32106;SDS011;18622;51.998;10.440;2023-07-24T13:08:26;2.37;;;2.17;;
32106;SDS011;18622;51.998;10.440;2023-07-24T13:10:54;2.60;;;2.10;;
32106;SDS011;18622;51.998;10.440;2023-07-24T13:13:22;2.50;;;2.30;;
32106;SDS011;18622;51.998;10.440;2023-07-24T13:15:50;2.30;;;2.10;;
32106;SDS011;18622;51.998;10.440;2023-07-24T13:18:17;2.40;;;2.20;;
32106;SDS011;18622;51.998;10.440;2023-07-24T13:20:46;3.27;;;2.60;;
32106;SDS011;18622;51.998;10.440;2023-07-24T13:23:14;3.00;;;2.80;;
32106;SDS011;18622;51.998;10.440;2023-07-24T13:25:41;2.47;;;2.27;;
32106;SDS011;18622;51.998;10.440;2023-07-24T13:28:09;3.13;;;2.47;;
32106;SDS011;18622;51.998;10.440;2023-07-24T13:30:37;2.40;;;2.20;;
32106;SDS011;18622;51.998;10.440;2023-07-24T13:33:05;2.40;;;2.20;;
32106;SDS011;18622;51.998;10.440;2023-07-24T13:35:33;4.30;;;2.90;;
32106;SDS011;18622;51.998;10.440;2023-07-24T13:38:01;2.40;;;2.10;;
32106;SDS011;18622;51.998;10.440;2023-07-24T13:40:28;2.30;;;2.20;;
32106;SDS011;18622;51.998;10.440;2023-07-24T13:42:56;2.50;;;2.20;;
32106;SDS011;18622;51.998;10.440;2023-07-24T13:45:24;2.50;;;2.30;;
32106;SDS011;18622;51.998;10.440;2023-07-24T13:47:52;2.37;;;2.17;;
32106;SDS011;18622;51.998;10.440;2023-07-24T13:50:20;3.40;;;3.00;;
32106;SDS011;18622;51.998;10.440;2023-07-24T13:52:47;4.07;;;2.50;;
32106;SDS011;18622;51.998;10.440;2023-07-24T13:55:15;2.90;;;2.40;;
32106;SDS011;18622;51.998;10.440;2023-07-24T13:57:43;3.57;;;2.40;;
32106;SDS011;18622;51.998;10.440;2023-07-24T14:00:11;2.43;;;2.20;;
32106;SDS011;18622;51.998;10.440;2023-07-24T14:02:39;2.97;;;2.53;;
32106;SDS011;18622;51.998;10.440;2023-07-24T14:05:07;2.20;;;2.00;;
32106;SDS011;18622;51.998;10.440;2023-07-24T14:07:35;3.07;;;2.83;;
32106;SDS011;18622;51.998;10.440;2023-07-24T14:10:03;2.80;;;2.23;;
32106;SDS011;18622;51.998;10.440;2023-07-24T14:12:31;2.77;;;2.57;;
32106;SDS011;18622;51.998;10.440;2023-07-24T14:14:59;2.50;;;2.30;;
32106;SDS011;18622;51.998;10.440;2023-07-24T14:17:27;2.53;;;2.33;;
32106;SDS011;18622;51.998;10.440;2023-07-24T14:19:54;2.60;;;2.40;;
32106;SDS011;18622;51.998;10.440;2023-07-24T14:22:22;2.60;;;2.40;;
32106;SDS011;18622;51.998;10.440;2023-07-24T14:24:50;2.53;;;2.33;;
32106;SDS011;18622;51.998;10.440;2023-07-24T14:27:18;2.80;;;2.60;;
32106;SDS011;18622;51.998;10.440;2023-07-24T14:29:46;3.13;;;2.83;;
32106;SDS011;18622;51.998;10.440;2023-07-24T14:32:14;5.07;;;2.63;;
32106;SDS011;18622;51.998;10.440;2023-07-24T14:34:42;3.00;;;2.70;;
32106;SDS011;18622;51.998;10.440;2023-07-24T14:37:09;2.70;;;2.50;;
32106;SDS011;18622;51.998;10.440;2023-07-24T14:39:37;2.60;;;2.40;;
32106;SDS011;18622;51.998;10.440;2023-07-24T14:42:05;4.43;;;2.70;;
32106;SDS011;18622;51.998;10.440;2023-07-24T14:44:33;2.43;;;2.17;;
32106;SDS011;18622;51.998;10.440;2023-07-24T14:47:00;4.50;;;2.20;;
32106;SDS011;18622;51.998;10.440;2023-07-24T14:49:28;2.70;;;2.50;;
32106;SDS011;18622;51.998;10.440;2023-07-24T14:51:56;3.03;;;2.50;;
32106;SDS011;18622;51.998;10.440;2023-07-24T14:54:24;4.23;;;2.67;;
32106;SDS011;18622;51.998;10.440;2023-07-24T14:56:52;3.33;;;3.03;;
32106;SDS011;18622;51.998;10.440;2023-07-24T15:01:48;10.10;;;4.25;;
32106;SDS011;18622;51.998;10.440;2023-07-24T15:04:16;83.13;;;9.13;;
32106;SDS011;18622;51.998;10.440;2023-07-24T15:06:44;21.43;;;5.00;;
32106;SDS011;18622;51.998;10.440;2023-07-24T15:09:12;43.37;;;8.03;;
32106;SDS011;18622;51.998;10.440;2023-07-24T15:11:40;16.67;;;6.50;;
32106;SDS011;18622;51.998;10.440;2023-07-24T15:14:07;2.90;;;2.37;;
32106;SDS011;18622;51.998;10.440;2023-07-24T15:16:35;5.73;;;1.83;;
32106;SDS011;18622;51.998;10.440;2023-07-24T15:19:03;2.63;;;1.80;;
32106;SDS011;18622;51.998;10.440;2023-07-24T15:21:31;2.53;;;2.23;;
32106;SDS011;18622;51.998;10.440;2023-07-24T15:23:58;15.83;;;2.53;;
32106;SDS011;18622;51.998;10.440;2023-07-24T15:26:26;7.07;;;3.10;;
32106;SDS011;18622;51.998;10.440;2023-07-24T15:28:54;10.53;;;2.97;;
32106;SDS011;18622;51.998;10.440;2023-07-24T15:31:22;21.97;;;3.70;;
32106;SDS011;18622;51.998;10.440;2023-07-24T15:33:50;16.57;;;2.70;;
32106;SDS011;18622;51.998;10.440;2023-07-24T15:36:17;12.20;;;3.40;;
32106;SDS011;18622;51.998;10.440;2023-07-24T15:38:45;3.40;;;2.13;;
32106;SDS011;18622;51.998;10.440;2023-07-24T15:41:13;7.03;;;2.87;;
32106;SDS011;18622;51.998;10.440;2023-07-24T15:43:41;4.00;;;2.13;;
32106;SDS011;18622;51.998;10.440;2023-07-24T15:46:09;3.57;;;1.87;;
32106;SDS011;18622;51.998;10.440;2023-07-24T15:48:36;5.47;;;2.20;;
32106;SDS011;18622;51.998;10.440;2023-07-24T15:51:04;5.80;;;2.40;;
32106;SDS011;18622;51.998;10.440;2023-07-24T15:53:32;5.80;;;2.40;;
32106;SDS011;18622;51.998;10.440;2023-07-24T15:56:00;3.10;;;2.40;;
32106;SDS011;18622;51.998;10.440;2023-07-24T15:58:28;3.87;;;2.43;;
32106;SDS011;18622;51.998;10.440;2023-07-24T16:00:55;9.70;;;3.80;;
32106;SDS011;18622;51.998;10.440;2023-07-24T16:03:23;4.23;;;2.20;;
32106;SDS011;18622;51.998;10.440;2023-07-24T16:05:53;5.55;;;2.50;;
32106;SDS011;18622;51.998;10.440;2023-07-24T16:08:21;7.53;;;2.33;;
32106;SDS011;18622;51.998;10.440;2023-07-24T16:10:48;3.83;;;2.23;;
32106;SDS011;18622;51.998;10.440;2023-07-24T16:13:16;4.17;;;2.17;;
32106;SDS011;18622;51.998;10.440;2023-07-24T16:15:44;3.97;;;2.03;;
32106;SDS011;18622;51.998;10.440;2023-07-24T16:18:12;2.00;;;1.63;;
32106;SDS011;18622;51.998;10.440;2023-07-24T16:20:40;2.97;;;1.70;;
32106;SDS011;18622;51.998;10.440;2023-07-24T16:23:07;1.93;;;1.40;;
32106;SDS011;18622;51.998;10.440;2023-07-24T16:25:35;4.33;;;1.40;;
32106;SDS011;18622;51.998;10.440;2023-07-24T16:28:03;3.53;;;1.30;;
32106;SDS011;18622;51.998;10.440;2023-07-24T16:30:31;1.80;;;1.23;;
32106;SDS011;18622;51.998;10.440;2023-07-24T16:32:59;1.90;;;1.20;;
32106;SDS011;18622;51.998;10.440;2023-07-24T16:35:27;1.60;;;1.30;;
32106;SDS011;18622;51.998;10.440;2023-07-24T16:37:55;1.20;;;1.10;;
32106;SDS011;18622;51.998;10.440;2023-07-24T16:40:22;1.83;;;1.20;;
32106;SDS011;18622;51.998;10.440;2023-07-24T16:42:50;1.30;;;1.20;;
32106;SDS011;18622;51.998;10.440;2023-07-24T16:45:18;1.37;;;1.23;;
32106;SDS011;18622;51.998;10.440;2023-07-24T16:47:46;3.47;;;1.50;;
32106;SDS011;18622;51.998;10.440;2023-07-24T16:50:14;1.47;;;1.30;;
32106;SDS011;18622;51.998;10.440;2023-07-24T16:52:42;1.40;;;1.30;;
32106;SDS011;18622;51.998;10.440;2023-07-24T16:55:09;1.87;;;1.27;;
32106;SDS011;18622;51.998;10.440;2023-07-24T16:57:37;2.20;;;1.30;;
32106;SDS011;18622;51.998;10.440;2023-07-24T17:00:05;1.30;;;1.20;;
32106;SDS011;18622;51.998;10.440;2023-07-24T17:05:03;1.30;;;1.20;;
32106;SDS011;18622;51.998;10.440;2023-07-24T17:07:31;1.43;;;1.33;;
32106;SDS011;18622;51.998;10.440;2023-07-24T17:09:59;1.57;;;1.00;;
32106;SDS011;18622;51.998;10.440;2023-07-24T17:12:26;3.17;;;1.30;;
32106;SDS011;18622;51.998;10.440;2023-07-24T17:14:54;2.07;;;1.40;;
32106;SDS011;18622;51.998;10.440;2023-07-24T17:17:22;1.97;;;1.43;;
32106;SDS011;18622;51.998;10.440;2023-07-24T17:19:50;1.63;;;1.20;;
32106;SDS011;18622;51.998;10.440;2023-07-24T17:22:18;2.40;;;1.20;;
32106;SDS011;18622;51.998;10.440;2023-07-24T17:24:45;1.80;;;1.40;;
32106;SDS011;18622;51.998;10.440;2023-07-24T17:27:13;2.03;;;1.20;;
32106;SDS011;18622;51.998;10.440;2023-07-24T17:29:41;1.50;;;1.40;;
32106;SDS011;18622;51.998;10.440;2023-07-24T17:32:09;1.83;;;1.40;;
32106;SDS011;18622;51.998;10.440;2023-07-24T17:34:37;7.65;;;1.70;;
32106;SDS011;18622;51.998;10.440;2023-07-24T17:37:05;2.53;;;1.50;;
32106;SDS011;18622;51.998;10.440;2023-07-24T17:39:33;8.17;;;1.50;;
32106;SDS011;18622;51.998;10.440;2023-07-24T17:42:01;1.97;;;1.23;;
32106;SDS011;18622;51.998;10.440;2023-07-24T17:44:29;1.67;;;1.30;;
32106;SDS011;18622;51.998;10.440;2023-07-24T17:46:56;1.83;;;1.10;;
32106;SDS011;18622;51.998;10.440;2023-07-24T17:49:24;1.83;;;1.23;;
32106;SDS011;18622;51.998;10.440;2023-07-24T17:51:52;1.10;;;1.00;;
32106;SDS011;18622;51.998;10.440;2023-07-24T17:54:20;3.67;;;1.20;;
32106;SDS011;18622;51.998;10.440;2023-07-24T17:56:48;1.23;;;1.00;;
32106;SDS011;18622;51.998;10.440;2023-07-24T17:59:16;1.05;;;1.00;;
32106;SDS011;18622;51.998;10.440;2023-07-24T18:01:44;1.00;;;0.90;;
32106;SDS011;18622;51.998;10.440;2023-07-24T18:04:11;1.13;;;0.93;;
32106;SDS011;18622;51.998;10.440;2023-07-24T18:06:39;1.27;;;1.10;;
32106;SDS011;18622;51.998;10.440;2023-07-24T18:09:07;4.00;;;1.23;;
32106;SDS011;18622;51.998;10.440;2023-07-24T18:11:35;1.87;;;0.90;;
32106;SDS011;18622;51.998;10.440;2023-07-24T18:14:02;1.53;;;0.97;;
32106;SDS011;18622;51.998;10.440;2023-07-24T18:16:30;1.00;;;1.00;;
32106;SDS011;18622;51.998;10.440;2023-07-24T18:18:58;3.60;;;1.00;;
32106;SDS011;18622;51.998;10.440;2023-07-24T18:21:26;1.23;;;1.00;;
32106;SDS011;18622;51.998;10.440;2023-07-24T18:23:54;1.43;;;1.10;;